Time;durP1;ratioP1;P1;durP2;ratioP2;P2;SDS_P1;SDS_P2;PMS_P1;PMS_P2;Temp;Humidity;BMP_temperature;BMP_pressure;BME280_temperature;BME280_humidity;BME280_pressure;Samples;Min_cycle;Max_cycle;Signal;HPM_P1;HPM_P2
2021/03/24 00:01:38;;;;;;;7.75;5.25;;;;;;;1.50;61.91;94232.47;4235786;28;20056;-82
2021/03/24 00:03:40;;;;;;;9.98;5.60;;;;;;;1.45;62.12;94233.78;4216782;28;20092;-83
2021/03/24 00:05:47;;;;;;;8.48;5.60;;;;;;;1.53;62.38;94215.94;4229563;28;20537;-84
2021/03/24 00:07:49;;;;;;;10.35;5.97;;;;;;;1.54;62.09;94218.41;4215741;28;20117;-82
2021/03/24 00:09:50;;;;;;;7.55;5.00;;;;;;;1.50;62.22;94222.16;4213539;28;20055;-85
2021/03/24 00:11:51;;;;;;;9.02;5.50;;;;;;;1.54;62.04;94210.66;4229260;28;20059;-70
2021/03/24 00:13:52;;;;;;;7.45;4.85;;;;;;;1.57;62.11;94218.19;4209373;28;20471;-71
2021/03/24 00:15:54;;;;;;;8.13;5.40;;;;;;;1.57;62.41;94215.59;4227060;28;20044;-70
2021/03/24 00:17:55;;;;;;;7.72;5.40;;;;;;;1.66;62.37;94214.06;4209020;28;20057;-70
2021/03/24 00:19:57;;;;;;;7.78;4.90;;;;;;;1.75;61.73;94213.38;4230730;28;20051;-70
2021/03/24 00:21:58;;;;;;;7.45;5.15;;;;;;;1.62;61.71;94212.66;4230658;28;20108;-71
2021/03/24 00:23:59;;;;;;;8.95;5.75;;;;;;;1.66;62.00;94213.22;4229104;28;20076;-70
2021/03/24 00:26:01;;;;;;;7.60;4.85;;;;;;;1.66;61.80;94213.22;4231266;28;20343;-71
2021/03/24 00:28:03;;;;;;;6.60;4.82;;;;;;;1.67;61.65;94217.47;4232378;27;20051;-70
2021/03/24 00:30:06;;;;;;;6.65;4.63;;;;;;;1.56;61.80;94211.34;4199941;27;20049;-70
2021/03/24 00:32:08;;;;;;;7.20;4.70;;;;;;;1.60;61.73;94209.38;4216858;28;20048;-72
2021/03/24 00:34:09;;;;;;;7.43;4.75;;;;;;;1.69;62.12;94208.66;4229720;28;20094;-71
2021/03/24 00:36:10;;;;;;;8.75;4.07;;;;;;;1.76;61.44;94214.19;4213068;28;20085;-70
2021/03/24 00:38:12;;;;;;;7.75;4.53;;;;;;;1.83;61.22;94212.78;4224224;28;20074;-71
2021/03/24 00:40:21;;;;;;;6.45;4.50;;;;;;;1.81;61.10;94212.91;4239039;27;20069;-71
2021/03/24 00:42:22;;;;;;;6.38;4.75;;;;;;;1.80;61.34;94213.00;4226712;28;20048;-70
2021/03/24 00:44:23;;;;;;;10.15;5.10;;;;;;;1.78;61.61;94220.06;4217663;28;20399;-70
2021/03/24 00:46:25;;;;;;;6.18;4.78;;;;;;;1.62;62.89;94218.66;4248140;27;20043;-70
2021/03/24 00:48:29;;;;;;;8.00;5.05;;;;;;;1.13;65.38;94227.47;4247002;27;20047;-70
2021/03/24 00:50:33;;;;;;;9.90;5.60;;;;;;;0.80;68.22;94226.44;4215620;28;20048;-70
2021/03/24 00:52:35;;;;;;;8.20;5.65;;;;;;;0.90;68.14;94230.94;4201778;28;20500;-71
2021/03/24 00:54:36;;;;;;;8.43;6.07;;;;;;;0.69;69.92;94239.31;4221721;28;20556;-70
2021/03/24 00:56:37;;;;;;;8.75;5.78;;;;;;;0.76;70.71;94232.75;4205034;28;20040;-72
2021/03/24 00:58:39;;;;;;;8.18;5.80;;;;;;;0.72;72.15;94226.19;4230560;28;20052;-72
2021/03/24 01:00:40;;;;;;;7.78;5.85;;;;;;;0.71;71.90;94221.97;4229219;28;20048;-70
2021/03/24 01:02:42;;;;;;;8.38;5.80;;;;;;;0.66;73.13;94233.53;4211145;28;20131;-70
2021/03/24 01:04:43;;;;;;;8.38;6.30;;;;;;;0.78;72.99;94223.16;4223788;28;20051;-70
2021/03/24 01:06:44;;;;;;;8.25;6.03;;;;;;;0.81;72.99;94210.03;4210919;28;20522;-71
2021/03/24 01:08:46;;;;;;;8.55;5.65;;;;;;;0.81;73.04;94206.63;4211939;28;20610;-71
2021/03/24 01:10:48;;;;;;;8.32;5.95;;;;;;;0.95;72.15;94206.47;4228442;28;20086;-71
2021/03/24 01:12:50;;;;;;;7.43;5.93;;;;;;;1.03;71.44;94205.88;4205801;28;20058;-70
2021/03/24 01:14:52;;;;;;;9.20;6.05;;;;;;;1.02;71.10;94206.81;4228837;27;20594;-70
2021/03/24 01:16:53;;;;;;;9.00;5.75;;;;;;;1.00;70.99;94195.78;4215873;28;20070;-71
2021/03/24 01:18:54;;;;;;;8.35;6.00;;;;;;;0.95;70.46;94192.75;4210880;28;20916;-71
2021/03/24 01:20:56;;;;;;;10.25;6.32;;;;;;;1.05;70.16;94193.69;4211882;28;20142;-70
2021/03/24 01:22:57;;;;;;;8.50;6.32;;;;;;;1.02;70.68;94186.19;4230334;28;20048;-71
2021/03/24 01:24:59;;;;;;;8.15;5.57;;;;;;;1.02;69.99;94184.44;4213026;28;20052;-70
2021/03/24 01:27:00;;;;;;;8.07;6.18;;;;;;;1.05;69.91;94193.69;4234595;27;20113;-70
2021/03/24 01:29:01;;;;;;;9.20;6.20;;;;;;;0.99;69.61;94179.50;4238381;27;20055;-71
2021/03/24 01:31:03;;;;;;;8.38;6.80;;;;;;;0.95;70.38;94175.50;4229553;28;20082;-70
2021/03/24 01:33:04;;;;;;;8.43;6.40;;;;;;;0.83;70.26;94166.09;4230239;28;20050;-70
2021/03/24 01:35:08;;;;;;;9.95;6.03;;;;;;;0.90;70.16;94174.19;4202486;28;20056;-71
2021/03/24 01:37:10;;;;;;;7.82;6.60;;;;;;;0.87;70.11;94175.25;4214185;28;20039;-71
2021/03/24 01:39:11;;;;;;;11.60;6.97;;;;;;;0.87;69.97;94174.44;4214086;28;20141;-71
2021/03/24 01:41:12;;;;;;;11.63;7.28;;;;;;;0.89;69.70;94173.38;4207623;28;20095;-71
2021/03/24 01:43:27;;;;;;;11.57;6.78;;;;;;;0.93;69.28;94168.81;4228955;28;20048;-70
2021/03/24 01:45:28;;;;;;;12.25;7.82;;;;;;;0.86;69.06;94163.31;4226091;28;20074;-71
2021/03/24 01:47:30;;;;;;;9.02;7.57;;;;;;;0.89;69.68;94164.81;4229058;28;20059;-69
2021/03/24 01:49:35;;;;;;;10.00;7.20;;;;;;;0.96;69.49;94164.25;4211615;28;20078;-71
2021/03/24 01:51:52;;;;;;;10.60;7.88;;;;;;;0.93;69.44;94158.50;4210936;28;20092;-70
2021/03/24 01:53:55;;;;;;;10.98;8.73;;;;;;;0.94;70.13;94157.56;4193732;28;20067;-71
2021/03/24 01:55:56;;;;;;;11.70;8.35;;;;;;;0.96;70.35;94169.41;4223445;28;20043;-71
2021/03/24 01:57:58;;;;;;;14.75;9.15;;;;;;;0.94;70.71;94153.22;4214213;28;20127;-70
2021/03/24 01:59:59;;;;;;;11.38;8.43;;;;;;;0.89;71.50;94162.25;4194683;28;20052;-70
2021/03/24 02:02:01;;;;;;;13.45;9.05;;;;;;;0.80;71.61;94156.84;4212231;28;20055;-70
2021/03/24 02:04:03;;;;;;;11.13;8.80;;;;;;;0.81;71.82;94152.50;4218339;28;20040;-71
2021/03/24 02:06:20;;;;;;;12.90;8.65;;;;;;;0.91;71.14;94155.22;4231011;27;20043;-71
2021/03/24 02:08:29;;;;;;;12.63;8.25;;;;;;;0.92;71.13;94154.28;4211920;28;20050;-71
2021/03/24 02:10:45;;;;;;;11.82;9.23;;;;;;;0.94;70.78;94155.78;4210531;28;20300;-71
2021/03/24 02:12:58;;;;;;;11.75;8.65;;;;;;;0.87;70.53;94153.81;4181423;28;20079;-71
2021/03/24 02:15:18;;;;;;;12.95;9.23;;;;;;;0.87;70.72;94148.66;4210900;28;20063;-71
2021/03/24 02:17:22;;;;;;;16.27;8.73;;;;;;;0.90;70.46;94138.09;4211195;28;20495;-71
2021/03/24 02:19:40;;;;;;;12.10;8.45;;;;;;;0.91;70.82;94144.91;4224176;28;20430;-70
2021/03/24 02:21:42;;;;;;;11.45;8.85;;;;;;;0.92;70.24;94147.34;4200533;28;20044;-68
2021/03/24 02:24:09;;;;;;;12.57;9.43;;;;;;;0.97;70.17;94141.88;4238222;27;20089;-70
2021/03/24 02:26:40;;;;;;;11.25;9.00;;;;;;;0.98;69.68;94151.25;4224118;27;20047;-70
2021/03/24 02:28:43;;;;;;;13.30;9.45;;;;;;;1.01;69.54;94145.84;4242363;27;20047;-70
2021/03/24 02:30:46;;;;;;;13.00;9.18;;;;;;;1.05;69.96;94136.13;4195593;28;20048;-71
2021/03/24 08:34:26;;;;;;;3.70;2.20;;;;;;;1.20;56.54;94529.75;4216095;28;20054;-72
2021/03/24 08:36:37;;;;;;;3.20;2.00;;;;;;;1.12;55.76;94535.44;4223884;28;20040;-74
2021/03/24 08:39:03;;;;;;;3.42;2.08;;;;;;;1.20;56.14;94525.41;4223689;28;20071;-71
2021/03/24 08:41:17;;;;;;;3.65;2.20;;;;;;;1.34;55.38;94529.63;4222511;28;20074;-73
2021/03/24 08:43:56;;;;;;;4.28;2.65;;;;;;;0.88;57.14;94544.84;4212797;28;20058;-73
2021/03/24 08:46:32;;;;;;;3.78;2.30;;;;;;;0.58;58.95;94530.50;4220453;28;20052;-74
2021/03/24 08:48:49;;;;;;;3.60;2.38;;;;;;;0.79;58.00;94538.56;4191170;27;20490;-71
2021/03/24 08:50:55;;;;;;;4.82;2.53;;;;;;;1.06;58.43;94541.03;4217219;28;20051;-73
2021/03/24 08:53:27;;;;;;;4.95;2.97;;;;;;;0.62;59.99;94534.53;4212125;28;20059;-73
2021/03/24 08:55:48;;;;;;;6.75;3.78;;;;;;;0.36;62.16;94538.84;4199859;28;20529;-73
2021/03/24 08:58:23;;;;;;;5.53;3.28;;;;;;;0.41;62.06;94539.41;4211179;28;20097;-73
2021/03/24 09:00:56;;;;;;;14.00;6.40;;;;;;;0.46;61.51;94536.50;4204322;28;20060;-73
2021/03/24 09:03:18;;;;;;;10.70;4.35;;;;;;;0.42;60.94;94535.06;4211335;28;20074;-72
2021/03/24 09:05:52;;;;;;;9.75;3.45;;;;;;;0.62;60.91;94534.53;4209301;28;20640;-72
2021/03/24 09:08:09;;;;;;;4.10;2.28;;;;;;;0.20;61.11;94537.28;4222232;28;20464;-73
2021/03/24 09:10:12;;;;;;;3.35;1.80;;;;;;;0.39;58.91;94536.91;4227595;27;20058;-72
2021/03/24 09:12:20;;;;;;;6.72;3.35;;;;;;;0.60;60.45;94541.53;4228023;28;20626;-73
2021/03/24 09:14:42;;;;;;;4.80;3.05;;;;;;;0.79;59.52;94534.22;4212236;28;20059;-72
2021/03/24 09:17:02;;;;;;;4.20;2.42;;;;;;;0.91;59.65;94542.91;4211351;28;20097;-73
2021/03/24 09:19:10;;;;;;;6.40;3.60;;;;;;;0.72;59.71;94543.31;4228670;28;20043;-72
2021/03/24 09:21:15;;;;;;;4.90;2.85;;;;;;;0.67;59.04;94540.22;4211520;28;20044;-71
2021/03/24 09:23:37;;;;;;;5.60;3.22;;;;;;;0.87;59.76;94548.38;4213229;28;20054;-72
2021/03/24 09:25:48;;;;;;;3.50;2.40;;;;;;;1.17;58.55;94546.25;4227361;28;20055;-72
2021/03/24 09:28:10;;;;;;;4.43;2.30;;;;;;;1.36;57.66;94558.72;4210808;28;20078;-73
2021/03/24 09:30:40;;;;;;;6.00;2.30;;;;;;;1.15;55.85;94553.28;4229981;28;20126;-73
2021/03/24 09:33:07;;;;;;;5.18;2.53;;;;;;;0.67;55.57;94550.53;4225220;28;20600;-72
2021/03/24 09:35:46;;;;;;;3.83;1.70;;;;;;;0.74;55.46;94546.63;4208247;28;20135;-72
2021/03/24 09:38:15;;;;;;;3.10;1.60;;;;;;;1.01;54.87;94548.22;4213370;28;20561;-86
2021/03/24 09:40:47;;;;;;;2.65;1.60;;;;;;;1.32;53.16;94557.28;4235394;28;20395;-88
2021/03/24 09:42:51;;;;;;;3.75;1.80;;;;;;;0.89;52.40;94560.22;4219039;28;20044;-86
2021/03/24 09:44:52;;;;;;;4.55;1.70;;;;;;;0.70;53.12;94565.78;4225722;28;20254;-85
2021/03/24 09:46:57;;;;;;;4.68;1.80;;;;;;;0.60;53.42;94564.75;4250485;27;20051;-86
2021/03/24 09:49:02;;;;;;;2.42;1.50;;;;;;;0.46;52.48;94563.09;4227216;28;20048;-86
2021/03/24 09:51:13;;;;;;;5.60;1.52;;;;;;;0.43;52.70;94575.34;4222745;28;20090;-88
2021/03/24 09:53:19;;;;;;;3.70;1.50;;;;;;;0.57;53.21;94570.94;4236936;28;20051;-88
2021/03/24 09:55:46;;;;;;;7.47;1.95;;;;;;;0.42;53.56;94565.97;4218660;28;20514;-87
2021/03/24 09:58:14;;;;;;;2.50;1.45;;;;;;;0.53;53.95;94584.13;4220900;28;20075;-86
2021/03/24 10:00:18;;;;;;;3.97;1.60;;;;;;;0.66;53.50;94579.81;4191657;28;20454;-89
2021/03/24 10:02:19;;;;;;;4.70;1.83;;;;;;;0.70;54.01;94590.75;4233528;27;20131;-85
2021/03/24 10:04:45;;;;;;;3.05;1.63;;;;;;;0.85;53.49;94589.72;4222031;28;20054;-85
2021/03/24 10:06:51;;;;;;;3.05;1.40;;;;;;;0.43;52.86;94585.66;4199437;28;20057;-86
2021/03/24 10:09:24;;;;;;;3.20;1.60;;;;;;;0.25;54.23;94590.28;4224477;28;20056;-84
2021/03/24 10:11:29;;;;;;;5.72;1.38;;;;;;;0.24;54.43;94592.03;4236351;28;20479;-87
2021/03/24 10:13:34;;;;;;;3.38;1.30;;;;;;;-0.21;54.92;94592.28;4216786;28;20047;-86
2021/03/24 10:15:51;;;;;;;2.13;1.33;;;;;;;-0.35;56.80;94601.78;4205344;28;20109;-88
2021/03/24 10:18:07;;;;;;;2.55;1.40;;;;;;;-0.27;58.15;94602.97;4228819;28;20054;-87
2021/03/24 10:20:21;;;;;;;2.08;1.40;;;;;;;-0.17;58.74;94610.94;4236719;28;20422;-85
2021/03/24 10:22:37;;;;;;;3.05;1.40;;;;;;;-0.40;59.60;94607.22;4206786;28;20048;-86
2021/03/24 10:24:47;;;;;;;3.40;1.95;;;;;;;-0.26;60.76;94603.78;4216398;28;20086;-89
2021/03/24 10:27:01;;;;;;;4.95;1.70;;;;;;;0.14;60.38;94596.13;4205695;28;20040;-87
2021/03/24 10:29:30;;;;;;;4.22;1.90;;;;;;;0.66;57.97;94600.44;4236649;28;20512;-85
2021/03/24 10:31:42;;;;;;;3.05;1.70;;;;;;;0.97;56.35;94598.41;4224363;28;20107;-85
2021/03/24 10:33:49;;;;;;;3.25;1.80;;;;;;;0.88;55.32;94596.44;4205415;28;20084;-83
2021/03/24 10:36:07;;;;;;;5.35;1.48;;;;;;;1.12;55.27;94601.69;4240024;28;20050;-86
2021/03/24 10:38:10;;;;;;;4.70;1.52;;;;;;;1.19;52.15;94602.94;4200394;28;20041;-85
2021/03/24 10:40:33;;;;;;;2.70;1.63;;;;;;;0.95;50.93;94605.44;4234683;28;20039;-86
2021/03/24 10:42:55;;;;;;;2.63;1.42;;;;;;;0.28;47.82;94602.94;4218173;28;20052;-85
2021/03/24 10:45:33;;;;;;;3.13;1.50;;;;;;;0.10;47.41;94603.19;4217332;28;20055;-85
2021/03/24 10:47:38;;;;;;;4.68;1.92;;;;;;;0.23;47.71;94605.81;4217060;28;20575;-85
2021/03/24 10:50:04;;;;;;;5.00;1.80;;;;;;;0.48;47.49;94601.66;4218528;28;20079;-87
2021/03/24 10:52:23;;;;;;;6.50;2.15;;;;;;;0.21;48.06;94605.09;4237716;28;20059;-86
2021/03/24 10:54:34;;;;;;;5.85;1.83;;;;;;;0.72;48.13;94600.03;4235360;28;20051;-88
2021/03/24 10:57:02;;;;;;;4.60;1.40;;;;;;;0.84;46.08;94588.09;4204439;28;20118;-87
2021/03/24 10:59:13;;;;;;;2.80;1.40;;;;;;;1.22;46.06;94594.97;4214193;27;20040;-87
2021/03/24 11:01:23;;;;;;;3.80;1.35;;;;;;;1.50;45.62;94600.81;4236960;28;20043;-88
2021/03/24 11:03:36;;;;;;;2.25;1.17;;;;;;;1.68;45.05;94598.69;4245812;27;20075;-86
2021/03/24 11:05:46;;;;;;;2.78;1.63;;;;;;;1.84;45.50;94589.75;4207595;28;20079;-88
2021/03/24 11:08:00;;;;;;;3.95;1.70;;;;;;;1.88;46.30;94592.97;4206820;28;20048;-83
2021/03/24 11:10:04;;;;;;;6.00;2.00;;;;;;;1.81;46.44;94599.50;4219980;28;20044;-87
2021/03/24 11:12:09;;;;;;;5.10;2.60;;;;;;;1.46;46.41;94597.59;4237306;27;20499;-84
2021/03/24 11:14:15;;;;;;;2.67;1.50;;;;;;;1.70;45.17;94595.09;4218238;28;20388;-87
2021/03/24 11:16:24;;;;;;;2.90;1.30;;;;;;;0.54;42.73;94601.28;4199860;28;20257;-84
2021/03/24 11:18:34;;;;;;;3.92;1.75;;;;;;;0.34;44.16;94595.63;4218355;28;20048;-89
2021/03/24 11:20:46;;;;;;;3.10;1.65;;;;;;;0.08;44.83;94593.94;4216426;28;20048;-88
2021/03/24 11:23:01;;;;;;;2.22;1.48;;;;;;;0.07;46.00;94600.84;4205238;28;20049;-87
2021/03/24 11:25:29;;;;;;;4.80;1.60;;;;;;;-0.04;45.67;94596.38;4214474;28;20111;-87
2021/03/24 11:27:39;;;;;;;4.68;2.03;;;;;;;0.36;46.55;94593.78;4231689;28;20069;-86
2021/03/24 11:30:08;;;;;;;4.70;1.85;;;;;;;0.65;44.99;94595.41;4217134;28;20142;-86
2021/03/24 11:32:30;;;;;;;2.88;1.63;;;;;;;0.84;43.81;94582.94;4195113;28;20254;-85
2021/03/24 11:34:43;;;;;;;5.07;1.63;;;;;;;1.03;42.14;94579.91;4221753;28;20052;-85
2021/03/24 11:36:53;;;;;;;4.43;1.63;;;;;;;1.46;42.01;94581.31;4238697;28;20046;-85
2021/03/24 11:39:01;;;;;;;3.40;1.10;;;;;;;1.96;40.21;94576.94;4199616;28;20056;-86
2021/03/24 11:41:14;;;;;;;3.80;1.77;;;;;;;2.15;39.70;94576.41;4216868;28;20048;-87
2021/03/24 11:43:22;;;;;;;3.33;1.55;;;;;;;2.20;40.27;94569.97;4216081;28;20051;-84
2021/03/24 11:45:24;;;;;;;3.97;1.63;;;;;;;2.40;40.23;94565.94;4199681;28;20056;-88
2021/03/24 11:47:45;;;;;;;4.03;1.50;;;;;;;2.08;39.32;94560.53;4217262;28;20062;-85
2021/03/24 11:50:27;;;;;;;5.22;1.60;;;;;;;0.78;41.57;94573.03;4216843;28;20078;-84
2021/03/24 11:52:43;;;;;;;6.05;1.77;;;;;;;1.03;41.43;94574.75;4235500;28;20081;-84
2021/03/24 11:55:05;;;;;;;7.60;2.67;;;;;;;1.27;40.93;94572.28;4232355;28;20138;-85
2021/03/24 11:57:31;;;;;;;5.28;1.98;;;;;;;1.02;42.50;94571.34;4198690;28;20062;-86
2021/03/24 11:59:44;;;;;;;4.53;1.50;;;;;;;1.19;41.38;94567.63;4233400;28;20050;-85
2021/03/24 12:02:00;;;;;;;3.15;1.63;;;;;;;0.94;40.86;94567.66;4218408;28;20044;-86
2021/03/24 12:04:17;;;;;;;3.90;1.60;;;;;;;1.27;42.12;94568.84;4234391;28;20062;-85
2021/03/24 12:06:26;;;;;;;3.65;1.30;;;;;;;1.83;40.63;94566.66;4233276;28;20105;-84
2021/03/24 12:08:37;;;;;;;3.05;1.75;;;;;;;1.58;40.01;94570.94;4202436;28;20049;-88
2021/03/24 12:10:43;;;;;;;4.57;1.70;;;;;;;1.54;39.86;94564.34;4233711;28;20075;-87
2021/03/24 12:12:45;;;;;;;4.38;1.23;;;;;;;1.92;38.02;94549.66;4217954;28;20506;-86
2021/03/24 12:15:04;;;;;;;2.85;1.30;;;;;;;1.92;39.31;94550.47;4220787;28;20068;-87
2021/03/24 12:17:34;;;;;;;2.75;1.60;;;;;;;1.80;38.10;94561.69;4228546;27;20035;-88
2021/03/24 12:19:43;;;;;;;4.32;2.17;;;;;;;1.53;40.42;94554.16;4232799;27;20439;-87
2021/03/24 12:21:44;;;;;;;13.13;2.50;;;;;;;1.71;41.07;94552.00;4226155;28;20539;-86
2021/03/24 12:23:47;;;;;;;5.75;1.88;;;;;;;1.77;39.75;94552.41;4230138;28;20052;-88
2021/03/24 12:25:52;;;;;;;3.50;1.60;;;;;;;1.71;39.61;94554.59;4235176;28;20394;-86
2021/03/24 12:27:55;;;;;;;4.25;2.03;;;;;;;1.79;38.91;94547.13;4203114;28;20050;-86
2021/03/24 12:30:24;;;;;;;2.65;1.67;;;;;;;1.85;39.58;94554.44;4219636;28;20477;-87
2021/03/24 12:32:28;;;;;;;4.28;1.58;;;;;;;2.08;39.49;94550.19;4202663;28;20084;-86
2021/03/24 12:34:36;;;;;;;12.52;2.15;;;;;;;2.10;38.27;94553.47;4237837;28;20136;-88
2021/03/24 12:36:47;;;;;;;2.95;1.55;;;;;;;1.90;38.33;94547.19;4218210;28;20423;-85
2021/03/24 12:38:57;;;;;;;4.15;2.47;;;;;;;1.78;39.96;94542.88;4217174;28;20075;-87
2021/03/24 12:41:00;;;;;;;2.90;1.60;;;;;;;1.31;40.19;94553.06;4236314;28;20055;-84
2021/03/24 12:43:08;;;;;;;7.40;2.47;;;;;;;1.66;41.32;94548.91;4218649;28;20074;-85
2021/03/24 12:45:31;;;;;;;7.10;2.60;;;;;;;2.06;40.40;94546.88;4202367;28;20067;-87
2021/03/24 12:47:37;;;;;;;6.30;2.90;;;;;;;1.48;42.46;94546.69;4236055;28;20058;-85
2021/03/24 12:49:39;;;;;;;6.30;3.00;;;;;;;1.40;43.98;94546.44;4238321;28;20411;-86
2021/03/24 12:51:48;;;;;;;4.07;2.53;;;;;;;1.09;43.65;94543.38;4238054;28;20426;-88
2021/03/24 12:53:54;;;;;;;4.47;2.30;;;;;;;0.92;43.54;94544.53;4227760;28;20055;-87
2021/03/24 12:56:14;;;;;;;8.68;2.50;;;;;;;1.21;43.65;94541.72;4237827;28;20120;-86
2021/03/24 12:58:33;;;;;;;4.93;2.72;;;;;;;1.30;42.97;94548.81;4205611;28;20112;-84
2021/03/24 13:00:39;;;;;;;5.68;2.35;;;;;;;1.25;41.78;94548.31;4225675;28;20098;-85
2021/03/24 13:03:08;;;;;;;7.85;2.35;;;;;;;1.17;41.35;94538.53;4236177;28;20052;-85
2021/03/24 13:05:15;;;;;;;5.88;2.10;;;;;;;1.39;42.38;94537.84;4218425;28;20059;-87
2021/03/24 13:07:34;;;;;;;3.60;2.22;;;;;;;1.59;40.97;94533.88;4219443;28;20058;-86
2021/03/24 13:09:49;;;;;;;4.63;2.75;;;;;;;1.58;40.94;94531.41;4204412;28;20086;-84
2021/03/24 13:12:22;;;;;;;14.07;2.25;;;;;;;1.83;41.29;94531.28;4243361;28;20111;-85
2021/03/24 13:14:27;;;;;;;5.22;2.10;;;;;;;1.95;40.15;94528.75;4226096;28;20063;-86
2021/03/24 13:16:44;;;;;;;4.47;2.33;;;;;;;2.28;41.99;94522.06;4243713;28;20048;-86
2021/03/24 13:19:09;;;;;;;4.95;2.90;;;;;;;2.59;41.52;94526.59;4205576;28;20073;-88
2021/03/24 13:21:35;;;;;;;5.82;2.70;;;;;;;2.30;40.12;94536.50;4226699;28;20051;-86
2021/03/24 13:23:56;;;;;;;4.60;1.92;;;;;;;1.65;38.16;94530.03;4193187;28;20052;-86
2021/03/24 13:26:00;;;;;;;3.28;1.90;;;;;;;1.86;38.08;94525.09;4219765;28;20056;-84
2021/03/24 13:28:15;;;;;;;6.95;2.40;;;;;;;1.85;38.05;94533.78;4219806;28;20040;-88
2021/03/24 13:30:19;;;;;;;3.67;1.95;;;;;;;1.86;38.38;94517.34;4219759;28;20058;-84
2021/03/24 13:32:30;;;;;;;;;;;;;;;2.11;38.90;94528.47;4220504;28;20055;-85
2021/03/24 13:34:49;;;;;;;4.50;1.85;;;;;;;2.18;37.10;94516.75;4243425;28;19942;-86
2021/03/24 13:36:57;;;;;;;14.48;6.30;;;;;;;2.29;36.66;94513.38;4254075;27;20046;-84
2021/03/24 13:39:17;;;;;;;5.88;2.97;;;;;;;2.30;37.02;94518.41;4244983;28;20043;-86
2021/03/24 13:41:21;;;;;;;4.10;2.03;;;;;;;2.19;37.38;94511.44;4232149;28;20078;-88
2021/03/24 13:43:30;;;;;;;4.70;2.40;;;;;;;2.05;36.54;94527.97;4245342;28;20048;-85
2021/03/24 13:45:33;;;;;;;4.68;2.20;;;;;;;1.71;35.24;94528.78;4243103;28;20055;-84
2021/03/24 13:47:38;;;;;;;4.07;1.80;;;;;;;1.63;35.76;94527.56;4202048;28;20064;-87
2021/03/24 13:49:48;;;;;;;4.13;2.10;;;;;;;1.66;35.92;94538.59;4203726;28;20054;-87
2021/03/24 13:51:58;;;;;;;3.95;1.85;;;;;;;1.72;35.22;94538.16;4208518;28;20514;-87
2021/03/24 13:54:11;;;;;;;2.75;1.60;;;;;;;1.27;34.86;94556.78;4211370;28;20068;-84
2021/03/24 13:56:21;;;;;;;3.50;1.40;;;;;;;1.26;33.12;94538.81;4208331;28;20058;-86
2021/03/24 13:58:38;;;;;;;6.25;2.50;;;;;;;1.53;34.34;94536.06;4248224;28;20073;-86
2021/03/24 14:00:43;;;;;;;2.80;1.80;;;;;;;1.36;33.61;94543.22;4245956;28;20054;-85
2021/03/24 14:03:03;;;;;;;4.75;1.90;;;;;;;1.30;33.54;94537.69;4220904;28;20048;-85
2021/03/24 14:05:19;;;;;;;3.08;1.73;;;;;;;1.43;34.84;94530.72;4214426;28;20055;-73
2021/03/24 14:07:42;;;;;;;4.15;1.50;;;;;;;1.28;35.46;94535.19;4210473;28;20513;-72
2021/03/24 14:09:58;;;;;;;3.67;1.48;;;;;;;1.28;35.03;94544.69;4228260;28;20063;-72
2021/03/24 14:12:18;;;;;;;3.83;1.40;;;;;;;1.33;32.01;94547.78;4211328;28;20537;-73
2021/03/24 14:14:34;;;;;;;4.22;1.80;;;;;;;1.55;33.63;94535.03;4227982;28;20051;-73
2021/03/24 14:16:40;;;;;;;7.38;3.13;;;;;;;1.76;34.54;94535.22;4229156;28;20132;-72
2021/03/24 14:18:59;;;;;;;4.00;2.03;;;;;;;1.93;35.10;94535.78;4214039;28;20630;-71
2021/03/24 14:21:10;;;;;;;4.65;1.52;;;;;;;1.78;33.42;94535.13;4210659;28;20067;-72
2021/03/24 14:23:19;;;;;;;3.83;1.63;;;;;;;1.57;33.46;94535.75;4223293;28;20055;-74
2021/03/24 14:25:31;;;;;;;4.53;1.77;;;;;;;1.54;33.97;94541.09;4221199;28;20055;-73
2021/03/24 14:27:40;;;;;;;3.85;1.55;;;;;;;1.17;34.21;94535.13;4193584;28;20044;-73
2021/03/24 14:29:46;;;;;;;3.03;1.50;;;;;;;1.38;34.96;94530.22;4222248;28;20565;-73
2021/03/24 14:32:02;;;;;;;2.70;1.45;;;;;;;1.28;34.94;94526.63;4219594;28;20048;-71
2021/03/24 14:34:13;;;;;;;3.05;1.63;;;;;;;1.60;35.20;94525.19;4223448;28;20052;-72
2021/03/24 14:36:42;;;;;;;2.92;1.48;;;;;;;1.55;35.48;94529.88;4216146;27;20052;-72
2021/03/24 14:38:55;;;;;;;3.58;1.80;;;;;;;1.69;36.00;94525.47;4222869;28;20048;-73
2021/03/24 14:41:21;;;;;;;4.95;1.73;;;;;;;2.22;33.97;94518.19;4227857;28;20133;-72
2021/03/24 14:43:46;;;;;;;3.13;1.48;;;;;;;1.75;32.23;94543.13;4223685;28;20042;-74
2021/03/24 14:46:10;;;;;;;2.80;1.58;;;;;;;1.89;33.41;94536.94;4173570;28;20056;-73
2021/03/24 14:48:14;;;;;;;3.10;1.73;;;;;;;1.72;33.98;94544.16;4198204;28;20096;-74
2021/03/24 14:50:36;;;;;;;5.30;2.03;;;;;;;1.88;34.18;94536.13;4227661;28;20080;-72
2021/03/24 14:52:59;;;;;;;4.82;2.22;;;;;;;2.13;33.90;94536.91;4211155;28;20048;-72
2021/03/24 14:55:06;;;;;;;5.35;2.20;;;;;;;2.12;34.36;94538.69;4196160;28;20101;-72
2021/03/24 14:57:24;;;;;;;2.65;1.65;;;;;;;2.24;34.66;94534.41;4222953;27;20143;-75
2021/03/24 14:59:35;;;;;;;3.22;1.23;;;;;;;2.21;32.92;94545.75;4214797;28;20686;-71
2021/03/24 15:01:45;;;;;;;6.35;1.50;;;;;;;2.52;32.76;94543.53;4222736;28;20052;-73
2021/03/24 15:03:51;;;;;;;4.22;1.55;;;;;;;2.12;31.75;94556.78;4211209;28;20074;-72
2021/03/24 15:06:02;;;;;;;2.75;1.45;;;;;;;2.22;30.52;94544.03;4222474;28;20101;-73
2021/03/24 15:08:15;;;;;;;2.00;1.23;;;;;;;2.08;30.69;94554.53;4196771;28;20044;-72
2021/03/24 15:10:23;;;;;;;2.53;1.63;;;;;;;1.98;30.27;94560.38;4217124;27;20066;-72
2021/03/24 15:12:27;;;;;;;3.42;1.85;;;;;;;2.32;30.72;94557.91;4226230;28;20458;-73
2021/03/24 15:14:28;;;;;;;;;;;;;;;2.25;30.83;94552.34;4244864;27;20051;-72
2021/03/24 15:16:48;;;;;;;3.17;1.70;;;;;;;2.09;31.19;94561.34;4213041;28;19946;-72
2021/03/24 15:19:11;;;;;;;2.72;1.60;;;;;;;2.12;31.53;94559.38;4211224;28;20048;-73
2021/03/24 15:21:46;;;;;;;3.10;1.55;;;;;;;2.20;31.78;94558.81;4226974;27;20438;-74
2021/03/24 15:23:51;;;;;;;3.20;1.50;;;;;;;2.16;31.74;94563.38;4211962;28;20164;-74
2021/03/24 15:26:01;;;;;;;5.00;1.90;;;;;;;2.34;31.60;94562.97;4192258;28;20052;-72
2021/03/24 15:28:17;;;;;;;2.78;1.63;;;;;;;2.07;31.57;94566.63;4213442;28;20055;-72
2021/03/24 15:30:41;;;;;;;5.55;2.58;;;;;;;2.32;31.73;94562.25;4209665;28;20106;-72
2021/03/24 15:32:58;;;;;;;3.05;1.60;;;;;;;2.06;31.12;94567.56;4216371;28;20058;-73
2021/03/24 15:35:21;;;;;;;2.22;1.30;;;;;;;1.99;31.35;94567.19;4215610;28;20056;-71
2021/03/24 15:37:49;;;;;;;4.65;1.40;;;;;;;2.41;30.54;94566.75;4214096;28;20822;-73
2021/03/24 15:40:16;;;;;;;5.97;2.55;;;;;;;2.16;31.77;94573.72;4232758;27;20476;-87
2021/03/24 15:42:30;;;;;;;4.95;2.25;;;;;;;1.90;32.28;94570.44;4221368;28;20048;-84
2021/03/24 15:44:41;;;;;;;8.18;3.65;;;;;;;1.72;33.20;94576.88;4238786;27;20072;-86
2021/03/24 15:47:02;;;;;;;4.25;2.13;;;;;;;1.96;32.96;94567.41;4218247;28;20048;-87
2021/03/24 15:49:14;;;;;;;8.35;2.53;;;;;;;2.34;33.06;94566.38;4234223;28;20051;-89
2021/03/24 15:51:25;;;;;;;6.05;3.65;;;;;;;2.92;32.51;94563.81;4202475;28;20110;-84
2021/03/24 15:53:41;;;;;;;10.40;4.25;;;;;;;2.51;32.78;94567.72;4220778;28;20051;-87
2021/03/24 15:55:44;;;;;;;4.72;2.10;;;;;;;2.18;34.10;94571.84;4214917;28;20105;-86
2021/03/24 15:58:14;;;;;;;4.43;2.42;;;;;;;2.11;35.46;94565.47;4252075;28;20063;-84
2021/03/24 16:00:30;;;;;;;6.40;2.15;;;;;;;2.49;36.01;94558.44;4231401;28;20044;-85
2021/03/24 16:02:44;;;;;;;4.10;2.08;;;;;;;2.70;35.51;94564.59;4216620;28;20060;-84
2021/03/24 16:05:24;;;;;;;4.18;1.65;;;;;;;2.37;35.80;94563.56;4249081;28;20104;-85
2021/03/24 16:07:34;;;;;;;4.38;1.70;;;;;;;2.08;36.33;94564.88;4215698;28;20465;-87
2021/03/24 16:09:43;;;;;;;5.45;2.58;;;;;;;2.06;37.04;94570.13;4214888;28;20289;-86
2021/03/24 16:11:44;;;;;;;3.45;2.20;;;;;;;2.06;37.21;94567.56;4216018;28;20051;-87
2021/03/24 16:13:59;;;;;;;3.65;2.40;;;;;;;2.07;37.50;94573.56;4225895;28;20074;-72
2021/03/24 16:16:15;;;;;;;5.68;2.95;;;;;;;1.72;38.28;94584.63;4216541;28;20530;-74
2021/03/24 16:18:28;;;;;;;8.02;3.17;;;;;;;1.67;38.42;94587.53;4229422;28;20051;-72
2021/03/24 16:20:39;;;;;;;8.43;3.45;;;;;;;1.63;38.49;94589.53;4210760;28;20044;-71
2021/03/24 16:22:49;;;;;;;4.82;3.10;;;;;;;1.58;39.54;94583.84;4227211;28;20062;-71
2021/03/24 16:24:54;;;;;;;6.10;2.90;;;;;;;1.43;40.23;94577.19;4225279;28;20065;-71
2021/03/24 16:27:16;;;;;;;6.50;3.55;;;;;;;1.41;40.39;94582.44;4216575;28;20551;-72
2021/03/24 16:29:26;;;;;;;4.93;3.30;;;;;;;1.41;40.67;94589.38;4209664;28;20591;-74
2021/03/24 16:31:45;;;;;;;6.22;2.92;;;;;;;1.49;41.05;94589.66;4221278;28;20052;-72